Time;durP1;ratioP1;P1;durP2;ratioP2;P2;SDS_P1;SDS_P2;PMS_P1;PMS_P2;Temp;Humidity;BMP_temperature;BMP_pressure;BME280_temperature;BME280_humidity;BME280_pressure;Samples;Min_cycle;Max_cycle;Signal;HPM_P1;HPM_P2
2022/12/26 00:01:44;;;;;;;24.35;20.10;;;;;;;8.71;100.00;101006.34;5116060;28;20026;-37
2022/12/26 00:04:09;;;;;;;31.95;23.45;;;;;;;8.66;100.00;100987.28;5115807;28;20449;-37
2022/12/26 00:06:34;;;;;;;26.90;22.77;;;;;;;8.72;100.00;100995.31;5116291;28;20023;-37
2022/12/26 00:09:02;;;;;;;27.10;22.10;;;;;;;8.66;100.00;100988.09;5116116;28;20337;-37
2022/12/26 00:11:27;;;;;;;28.15;22.88;;;;;;;8.74;100.00;101004.06;5115336;28;20493;-37
2022/12/26 00:13:59;;;;;;;28.17;23.17;;;;;;;8.76;100.00;100993.03;5115828;28;20035;-37
2022/12/26 00:16:25;;;;;;;29.95;23.58;;;;;;;8.76;100.00;100993.88;5115564;28;20047;-37
2022/12/26 00:18:51;;;;;;;28.80;23.42;;;;;;;8.74;100.00;100997.84;5113840;28;20031;-37
2022/12/26 00:21:18;;;;;;;34.92;24.23;;;;;;;8.77;100.00;101009.00;5115529;28;20382;-37
2022/12/26 00:23:43;;;;;;;28.35;23.88;;;;;;;8.77;100.00;101011.69;5116296;27;20028;-37
2022/12/26 00:26:12;;;;;;;28.65;23.33;;;;;;;8.78;100.00;101015.22;5115644;28;20019;-37
2022/12/26 00:28:38;;;;;;;29.98;23.58;;;;;;;8.72;100.00;101013.38;5114057;28;20032;-37
2022/12/26 00:31:05;;;;;;;30.63;25.73;;;;;;;8.80;100.00;101033.88;5113764;28;20040;-37
2022/12/26 00:33:30;;;;;;;32.55;24.85;;;;;;;8.73;100.00;101028.50;5115370;28;20039;-37
2022/12/26 00:36:08;;;;;;;31.50;24.93;;;;;;;8.75;100.00;101031.84;5114609;28;20023;-37
2022/12/26 00:38:35;;;;;;;32.05;24.73;;;;;;;8.81;100.00;101032.84;5115859;28;20106;-37
2022/12/26 00:41:01;;;;;;;31.75;26.27;;;;;;;8.80;100.00;101037.41;5115044;28;20051;-37
2022/12/26 00:43:26;;;;;;;28.88;24.33;;;;;;;8.76;100.00;101042.41;5115777;28;20103;-37
2022/12/26 00:45:52;;;;;;;31.90;26.75;;;;;;;8.83;100.00;101033.44;5115525;28;20431;-37
2022/12/26 00:48:17;;;;;;;31.03;26.33;;;;;;;8.83;100.00;101038.84;5114788;28;20046;-37
2022/12/26 00:50:43;;;;;;;29.10;24.65;;;;;;;8.83;100.00;101041.53;5114517;28;20472;-37
2022/12/26 00:53:08;;;;;;;31.65;26.90;;;;;;;8.78;100.00;101031.38;5115623;28;20028;-38
2022/12/26 00:55:34;;;;;;;32.00;27.27;;;;;;;8.83;100.00;101046.94;5114890;28;20157;-38
2022/12/26 00:57:59;;;;;;;32.20;26.97;;;;;;;8.84;100.00;101054.00;5114759;28;20729;-38
2022/12/26 01:00:25;;;;;;;31.57;26.50;;;;;;;8.82;100.00;101051.50;5114346;28;20286;-38
2022/12/26 01:02:50;;;;;;;30.13;26.55;;;;;;;8.82;100.00;101039.88;5114897;28;20032;-46
2022/12/26 01:05:16;;;;;;;31.40;27.07;;;;;;;8.75;100.00;101021.06;5114330;28;20413;-38
2022/12/26 01:07:41;;;;;;;30.48;26.70;;;;;;;8.80;100.00;101025.81;5114425;28;20090;-38
2022/12/26 01:10:10;;;;;;;30.40;26.50;;;;;;;8.77;100.00;101035.13;5114741;28;20077;-38
2022/12/26 01:12:35;;;;;;;31.05;25.73;;;;;;;8.74;100.00;101038.28;5114733;28;20275;-38
2022/12/26 01:15:01;;;;;;;31.37;26.67;;;;;;;8.73;100.00;101047.38;5114761;28;20098;-38
2022/12/26 01:17:27;;;;;;;31.40;25.80;;;;;;;8.72;100.00;101061.91;5114449;28;20029;-38
2022/12/26 01:19:53;;;;;;;31.90;27.90;;;;;;;8.70;100.00;101042.44;5114471;28;20409;-38
2022/12/26 01:22:19;;;;;;;31.40;27.13;;;;;;;8.66;100.00;101057.38;5114350;28;20024;-38
2022/12/26 01:24:45;;;;;;;30.20;26.85;;;;;;;8.70;100.00;101061.31;5114825;28;20081;-38
2022/12/26 01:27:10;;;;;;;28.25;25.17;;;;;;;8.69;100.00;101055.09;5114260;28;20016;-38
2022/12/26 01:29:35;;;;;;;28.80;25.17;;;;;;;8.71;100.00;101049.47;5114437;28;20051;-38
2022/12/26 01:32:01;;;;;;;29.10;25.63;;;;;;;8.70;100.00;101047.81;5114137;28;20312;-38
2022/12/26 01:34:26;;;;;;;32.47;27.43;;;;;;;8.61;100.00;101043.72;5114149;28;20051;-38
2022/12/26 01:36:52;;;;;;;29.90;26.30;;;;;;;8.66;100.00;101058.19;5114595;28;20269;-38
2022/12/26 01:39:18;;;;;;;28.77;25.05;;;;;;;8.65;100.00;101058.41;5114568;28;20028;-38
2022/12/26 01:41:43;;;;;;;29.10;24.88;;;;;;;8.62;100.00;101053.44;5114003;28;20047;-37
2022/12/26 01:44:59;;;;;;;28.13;24.13;;;;;;;8.64;100.00;101057.59;5114189;28;20024;-37
2022/12/26 01:47:36;;;;;;;26.90;23.10;;;;;;;8.60;100.00;101069.03;5031577;28;20088;-37
2022/12/26 01:50:02;;;;;;;28.60;23.52;;;;;;;8.49;100.00;101055.16;5030986;28;20061;-38
2022/12/26 01:52:42;;;;;;;24.85;22.23;;;;;;;8.57;100.00;101058.66;5030940;28;20564;-38
2022/12/26 01:55:12;;;;;;;25.98;21.52;;;;;;;8.50;100.00;101051.41;5031033;28;20132;-38
2022/12/26 01:57:42;;;;;;;24.50;20.58;;;;;;;8.56;100.00;101068.59;5031050;28;20096;-38
2022/12/26 02:00:09;;;;;;;26.58;22.00;;;;;;;8.56;100.00;101063.22;5031082;28;20052;-38
2022/12/26 02:05:32;;;;;;;25.38;21.40;;;;;;;8.56;100.00;101068.59;5030787;28;20591;-38
2022/12/26 02:05:33;;;;;;;24.50;21.67;;;;;;;8.57;100.00;101061.34;5031576;28;20485;-36
2022/12/26 02:08:10;;;;;;;26.42;22.20;;;;;;;8.55;100.00;101064.25;5031306;28;20163;-38
2022/12/26 02:10:47;;;;;;;;;;;;;;;8.60;100.00;101061.75;5031489;28;20042;-36
2022/12/26 02:13:14;;;;;;;26.33;22.15;;;;;;;8.56;100.00;101063.22;5030717;28;19909;-36
2022/12/26 02:15:40;;;;;;;28.13;23.92;;;;;;;8.55;100.00;101076.91;5030686;28;20207;-37
2022/12/26 02:18:06;;;;;;;26.40;22.92;;;;;;;8.55;100.00;101068.81;5030936;28;20040;-38
2022/12/26 02:20:57;;;;;;;29.73;22.73;;;;;;;8.56;100.00;101068.59;5030521;28;20025;-37
2022/12/26 02:24:00;;;;;;;26.45;22.67;;;;;;;8.59;100.00;101068.19;5085024;28;20291;-37
2022/12/26 02:26:49;;;;;;;25.83;22.77;;;;;;;8.51;100.00;101057.63;5113459;28;20028;-37
2022/12/26 02:29:20;;;;;;;26.42;23.38;;;;;;;8.50;100.00;101053.28;5113378;28;20062;-37
2022/12/26 02:32:04;;;;;;;28.00;25.00;;;;;;;8.60;100.00;101071.72;5113564;28;20027;-37
2022/12/26 02:34:56;;;;;;;25.50;22.88;;;;;;;8.60;100.00;101069.84;5113011;28;20047;-37
2022/12/26 02:38:10;;;;;;;26.40;22.98;;;;;;;8.61;100.00;101060.72;5113098;28;20055;-37
2022/12/26 02:41:10;;;;;;;23.70;21.17;;;;;;;8.62;100.00;101062.34;4971207;28;20539;-37
2022/12/26 02:43:41;;;;;;;24.05;21.60;;;;;;;8.61;100.00;101076.88;4971388;28;20061;-37
2022/12/26 02:49:29;;;;;;;22.52;20.23;;;;;;;8.60;100.00;101069.03;4971870;28;20425;-37
2022/12/26 03:17:18;;;;;;;21.65;19.65;;;;;;;8.60;100.00;101066.31;4880424;29;20529;-37
2022/12/26 03:18:18;;;;;;;20.42;18.55;;;;;;;8.57;100.00;101064.03;4968304;28;20070;-37
2022/12/26 03:20:44;;;;;;;20.73;18.73;;;;;;;8.62;100.00;101077.72;4975641;28;20412;-37
2022/12/26 03:23:13;;;;;;;19.83;18.02;;;;;;;8.63;100.00;101085.56;4975417;28;20062;-37
2022/12/26 03:28:27;;;;;;;17.33;15.82;;;;;;;8.60;100.00;101069.84;4975512;28;20050;-37
2022/12/26 03:30:55;;;;;;;18.10;16.38;;;;;;;8.58;100.00;101065.69;4975598;28;20129;-38
2022/12/26 03:36:06;;;;;;;16.38;14.80;;;;;;;8.55;100.00;101044.56;5106096;28;20115;-37
2022/12/26 03:38:54;;;;;;;13.40;12.20;;;;;;;8.55;100.00;101052.66;5117006;28;20034;-37
2022/12/26 04:19:27;;;;;;;8.43;7.60;;;;;;;8.32;100.00;101115.88;5115697;28;20142;-37
2022/12/26 04:44:30;;;;;;;7.47;6.68;;;;;;;8.16;100.00;101090.22;5115500;28;20065;-37
2022/12/26 04:46:56;;;;;;;7.03;6.32;;;;;;;8.21;100.00;101092.28;5115681;28;20023;-37
2022/12/26 04:52:12;;;;;;;6.32;5.72;;;;;;;8.12;100.00;101070.13;5115290;28;20050;-37
2022/12/26 04:54:38;;;;;;;6.15;5.65;;;;;;;8.14;100.00;101070.72;5114678;28;20059;-37
2022/12/26 04:57:04;;;;;;;6.72;5.75;;;;;;;8.12;100.00;101067.44;5115222;28;20141;-37
2022/12/26 04:59:30;;;;;;;6.57;5.97;;;;;;;8.17;100.00;101080.28;5114942;28;20024;-37
2022/12/26 05:10:23;;;;;;;6.88;5.43;;;;;;;8.06;100.00;101070.13;5114700;28;20123;-37
2022/12/26 05:12:50;;;;;;;5.70;5.20;;;;;;;8.11;100.00;101092.72;5114851;28;20390;-37
2022/12/26 05:15:15;;;;;;;6.10;5.50;;;;;;;8.12;100.00;101085.47;5114214;28;20456;-37
2022/12/26 05:28:53;;;;;;;6.97;6.25;;;;;;;8.09;100.00;101104.72;5114149;28;20122;-37
2022/12/26 05:31:18;;;;;;;7.25;6.22;;;;;;;8.06;100.00;101099.75;5113895;28;20524;-37
2022/12/26 05:36:30;;;;;;;7.10;6.25;;;;;;;8.06;100.00;101095.22;5114451;28;20038;-37
2022/12/26 05:38:56;;;;;;;8.55;6.10;;;;;;;8.06;100.00;101080.91;5114463;28;20129;-37
2022/12/26 05:41:22;;;;;;;6.93;6.22;;;;;;;8.07;100.00;101079.88;5113683;28;20138;-37
2022/12/26 05:43:48;;;;;;;6.88;6.18;;;;;;;8.04;100.00;101077.59;5114479;28;20377;-37
2022/12/26 05:46:13;;;;;;;6.57;5.72;;;;;;;8.05;100.00;101071.16;5114145;28;20032;-37
2022/12/26 05:48:39;;;;;;;6.23;5.60;;;;;;;8.04;100.00;101064.94;5114850;28;20034;-37
2022/12/26 05:51:04;;;;;;;6.43;5.83;;;;;;;8.04;100.00;101061.41;5114236;28;20038;-37
2022/12/26 05:53:30;;;;;;;6.77;6.07;;;;;;;8.02;100.00;101056.25;5114020;28;20028;-37
2022/12/26 05:56:06;;;;;;;;;;;;;;;8.05;100.00;101063.91;5114839;28;20030;-38
2022/12/26 05:58:32;;;;;;;6.13;5.28;;;;;;;8.00;100.00;101050.22;5114135;28;19947;-37
2022/12/26 06:01:05;;;;;;;5.53;5.03;;;;;;;8.00;100.00;101069.94;5113745;28;20066;-38
2022/12/26 06:03:31;;;;;;;6.22;5.63;;;;;;;7.99;100.00;101062.88;5113986;28;20107;-38
2022/12/26 06:05:56;;;;;;;5.47;4.97;;;;;;;7.97;100.00;101067.66;5113956;28;20110;-38
2022/12/26 06:08:22;;;;;;;5.87;5.27;;;;;;;7.98;100.00;101055.84;5113978;28;20027;-38
2022/12/26 06:10:47;;;;;;;6.85;5.57;;;;;;;7.99;100.00;101065.56;5113849;28;20032;-38
2022/12/26 06:13:12;;;;;;;7.07;5.47;;;;;;;8.02;100.00;101071.59;5113668;28;20035;-38
2022/12/26 06:15:38;;;;;;;7.83;5.90;;;;;;;7.86;100.00;101049.44;5113289;28;20024;-38
2022/12/26 06:18:03;;;;;;;5.63;5.00;;;;;;;8.02;100.00;101087.75;5114033;28;20117;-38
2022/12/26 06:20:29;;;;;;;6.67;5.60;;;;;;;8.02;100.00;101085.06;5113436;28;20088;-38
2022/12/26 06:22:54;;;;;;;6.20;5.60;;;;;;;8.03;100.00;101089.41;5114001;28;20023;-38
2022/12/26 06:25:19;;;;;;;8.33;4.97;;;;;;;7.96;100.00;101084.03;5113461;28;20099;-38
2022/12/26 06:27:45;;;;;;;6.20;5.50;;;;;;;8.04;100.00;101088.34;5113393;28;20023;-38
2022/12/26 06:30:10;;;;;;;6.60;5.40;;;;;;;7.93;100.00;101079.88;5113731;28;20277;-38
2022/12/26 06:32:36;;;;;;;5.30;4.80;;;;;;;8.04;100.00;101085.66;5113353;28;20449;-38
2022/12/26 06:35:01;;;;;;;6.73;5.37;;;;;;;8.04;100.00;101101.81;5113030;28;20089;-38
2022/12/26 06:37:26;;;;;;;4.97;4.47;;;;;;;8.04;100.00;101096.44;5113051;28;20148;-37
2022/12/26 06:39:52;;;;;;;5.47;4.93;;;;;;;7.95;100.00;101087.72;5114145;28;20436;-38
2022/12/26 06:42:17;;;;;;;5.27;4.77;;;;;;;8.04;100.00;101113.41;5113661;28;20104;-38
2022/12/26 06:44:42;;;;;;;5.13;4.63;;;;;;;7.99;100.00;101105.97;5113561;28;20438;-37
2022/12/26 06:47:07;;;;;;;5.10;4.60;;;;;;;8.04;100.00;101113.41;5113076;28;20527;-37
2022/12/26 06:49:33;;;;;;;4.90;4.40;;;;;;;7.98;100.00;101098.09;5113836;28;20035;-38
2022/12/26 06:51:58;;;;;;;6.50;4.63;;;;;;;8.05;100.00;101112.38;5113175;28;20107;-38
2022/12/26 06:54:23;;;;;;;5.17;4.67;;;;;;;8.05;100.00;101103.47;5113740;28;20055;-38
2022/12/26 06:56:49;;;;;;;5.40;4.40;;;;;;;8.04;100.00;101096.44;5113505;28;20126;-38
2022/12/26 06:59:14;;;;;;;5.27;4.20;;;;;;;8.05;100.00;101098.09;5113600;28;20026;-38
2022/12/26 07:01:39;;;;;;;5.27;4.37;;;;;;;8.05;100.00;101101.59;5113423;28;20032;-38
2022/12/26 07:04:05;;;;;;;4.27;3.87;;;;;;;8.06;100.00;101097.91;5113029;28;20044;-38
2022/12/26 07:06:35;;;;;;;5.30;4.07;;;;;;;8.05;100.00;101098.91;5113211;28;20424;-36
2022/12/26 07:09:04;;;;;;;5.72;4.00;;;;;;;8.04;100.00;101105.34;5113165;28;20099;-37
2022/12/26 07:11:33;;;;;;;4.40;3.55;;;;;;;8.03;100.00;101100.16;5112748;28;20034;-37
2022/12/26 07:13:58;;;;;;;4.00;3.42;;;;;;;8.03;100.00;101105.56;5112698;28;20119;-37
2022/12/26 07:16:24;;;;;;;4.30;3.45;;;;;;;7.96;100.00;101101.00;5112991;28;20106;-37
2022/12/26 07:18:57;;;;;;;4.82;3.30;;;;;;;8.00;100.00;101106.78;5112756;28;20031;-37
2022/12/26 07:21:24;;;;;;;6.15;3.85;;;;;;;7.98;100.00;101104.31;5112902;28;20024;-37
2022/12/26 07:23:49;;;;;;;4.15;2.70;;;;;;;8.00;100.00;101113.03;5113084;28;20028;-37
2022/12/26 07:26:15;;;;;;;4.22;3.08;;;;;;;7.98;100.00;101115.09;5112948;28;20039;-37
2022/12/26 07:28:40;;;;;;;3.67;2.58;;;;;;;7.97;100.00;101115.31;5113352;28;20034;-38
2022/12/26 07:31:06;;;;;;;3.80;2.75;;;;;;;7.99;100.00;101118.59;5112633;28;20038;-38
2022/12/26 07:33:31;;;;;;;4.80;2.60;;;;;;;7.93;100.00;101116.75;5112941;28;20032;-37
2022/12/26 07:36:02;;;;;;;3.20;2.50;;;;;;;7.99;100.00;101140.16;5112581;28;20327;-37
2022/12/26 07:38:27;;;;;;;4.00;2.70;;;;;;;7.98;100.00;101135.81;5114733;28;20337;-37
2022/12/26 07:40:55;;;;;;;5.33;2.70;;;;;;;7.94;100.00;101129.16;5116198;28;20050;-37
2022/12/26 07:43:22;;;;;;;4.50;2.50;;;;;;;7.92;100.00;101140.16;5116193;28;20032;-37
2022/12/26 07:45:47;;;;;;;5.25;2.70;;;;;;;7.95;100.00;101146.97;5116609;28;20055;-38
2022/12/26 07:48:12;;;;;;;6.70;2.30;;;;;;;7.95;100.00;101153.22;5116765;28;20047;-37
2022/12/26 07:50:38;;;;;;;3.75;2.10;;;;;;;7.96;100.00;101144.09;5116390;28;20464;-37
2022/12/26 07:53:03;;;;;;;5.90;2.43;;;;;;;7.92;100.00;101150.09;5116775;28;20107;-38
2022/12/26 07:55:29;;;;;;;5.03;2.67;;;;;;;7.94;100.00;101145.31;5116353;28;20474;-39
2022/12/26 07:57:54;;;;;;;4.10;2.30;;;;;;;7.83;100.00;101127.91;5117075;28;20031;-38
2022/12/26 08:00:19;;;;;;;5.43;2.20;;;;;;;7.90;100.00;101130.59;5114551;28;20031;-38
2022/12/26 08:02:49;;;;;;;3.17;2.50;;;;;;;7.89;100.00;101131.66;5116632;28;20091;-38
2022/12/26 08:05:16;;;;;;;4.97;2.60;;;;;;;7.90;100.00;101150.28;5115608;28;20723;-37
2022/12/26 08:07:41;;;;;;;4.18;2.47;;;;;;;7.92;100.00;101152.78;5115808;28;20077;-38
2022/12/26 08:10:07;;;;;;;2.93;2.33;;;;;;;7.79;100.00;101126.66;5116303;28;20023;-38
2022/12/26 08:12:33;;;;;;;5.20;2.58;;;;;;;7.90;100.00;101146.75;5115691;28;20031;-37
2022/12/26 08:14:58;;;;;;;4.05;2.55;;;;;;;7.90;100.00;101152.97;5116584;27;20107;-37
2022/12/26 08:17:23;;;;;;;3.43;2.80;;;;;;;7.92;100.00;101155.47;5116661;28;20035;-37
2022/12/26 08:19:49;;;;;;;5.07;2.55;;;;;;;7.95;100.00;101147.81;5115938;28;20023;-37
2022/12/26 08:22:14;;;;;;;4.80;2.77;;;;;;;7.98;100.00;101144.72;5115523;28;20023;-37
2022/12/26 08:24:40;;;;;;;5.60;2.83;;;;;;;7.99;100.00;101149.06;5116658;28;20024;-38
2022/12/26 08:27:05;;;;;;;4.03;2.40;;;;;;;7.97;100.00;101142.22;5115693;28;20518;-38
2022/12/26 08:29:31;;;;;;;5.28;2.60;;;;;;;8.07;100.00;101155.28;5115552;28;20039;-38
2022/12/26 08:31:56;;;;;;;4.03;2.40;;;;;;;8.11;100.00;101156.53;5115448;28;20425;-38
2022/12/26 08:34:21;;;;;;;3.63;2.13;;;;;;;8.16;100.00;101151.34;5115856;28;20066;-40
2022/12/26 08:36:50;;;;;;;6.60;2.63;;;;;;;8.16;100.00;101143.28;5115647;28;20124;-39
2022/12/26 08:39:16;;;;;;;6.80;2.38;;;;;;;8.32;100.00;101152.78;5115474;28;20066;-37
2022/12/26 08:41:41;;;;;;;5.32;2.45;;;;;;;8.42;100.00;101155.91;5115637;27;20075;-37
2022/12/26 08:44:08;;;;;;;4.70;2.77;;;;;;;8.49;100.00;101154.03;5115767;28;20089;-37
2022/12/26 08:46:33;;;;;;;3.42;1.85;;;;;;;8.54;100.00;101162.34;5115194;28;20028;-38
2022/12/26 08:48:59;;;;;;;5.90;2.10;;;;;;;8.51;100.00;101155.50;5115576;28;20098;-38
2022/12/26 08:51:24;;;;;;;4.23;1.97;;;;;;;8.60;100.00;101168.75;5114739;28;20479;-38
2022/12/26 08:53:51;;;;;;;4.72;1.90;;;;;;;8.65;100.00;101175.16;5115191;28;20027;-38
2022/12/26 08:56:19;;;;;;;4.95;1.73;;;;;;;8.66;100.00;101160.66;5115194;28;20058;-37
2022/12/26 08:58:45;;;;;;;5.13;2.00;;;;;;;8.73;100.00;101166.84;5115278;28;20457;-37
2022/12/26 09:01:16;;;;;;;4.00;1.98;;;;;;;8.85;100.00;101177.00;5114552;28;20031;-37
2022/12/26 09:03:42;;;;;;;3.63;1.98;;;;;;;8.89;100.00;101176.38;5114607;28;20052;-37
2022/12/26 09:06:08;;;;;;;6.65;1.80;;;;;;;8.92;100.00;101178.63;5114818;28;20024;-37
2022/12/26 09:08:35;;;;;;;3.90;1.95;;;;;;;8.95;100.00;101199.78;5114908;28;20036;-38
2022/12/26 09:11:04;;;;;;;;;;;;;;;8.96;100.00;101198.75;5114932;28;20480;-38
2022/12/26 09:13:31;;;;;;;4.82;2.05;;;;;;;8.94;100.00;101200.00;5115522;28;19998;-38
2022/12/26 09:16:03;;;;;;;3.60;1.95;;;;;;;8.87;100.00;101183.81;5114712;28;20024;-38
2022/12/26 09:18:30;;;;;;;3.28;1.70;;;;;;;8.92;100.00;101197.50;5114611;28;20118;-38
2022/12/26 09:20:59;;;;;;;5.55;1.70;;;;;;;8.85;100.00;101182.38;5115119;28;20024;-38
2022/12/26 09:23:24;;;;;;;7.78;1.95;;;;;;;8.93;100.00;101204.56;5114516;28;20027;-39
2022/12/26 09:25:49;;;;;;;3.23;1.30;;;;;;;8.82;100.00;101180.94;5114817;27;20020;-38
2022/12/26 09:28:15;;;;;;;2.60;1.57;;;;;;;8.96;100.00;101203.31;5114771;28;20035;-38
2022/12/26 09:30:40;;;;;;;4.43;1.73;;;;;;;8.84;100.00;101195.06;5114465;28;20050;-37
2022/12/26 09:33:06;;;;;;;3.20;1.30;;;;;;;8.93;100.00;101215.38;5114259;28;20383;-38
2022/12/26 09:35:31;;;;;;;;;;;;;;;9.03;100.00;101225.72;5114776;28;20057;-38
2022/12/26 09:37:57;;;;;;;5.47;1.40;;;;;;;9.06;100.00;101230.66;5114789;28;19988;-38
2022/12/26 09:40:27;;;;;;;5.27;1.50;;;;;;;9.04;100.00;101216.56;5114029;28;20047;-38
2022/12/26 09:43:06;;;;;;;2.88;1.20;;;;;;;9.11;100.00;101221.94;5114498;28;20477;-38
2022/12/26 09:45:50;;;;;;;5.80;1.50;;;;;;;9.13;100.00;101236.06;5113004;28;20054;-37
2022/12/26 09:48:33;;;;;;;4.25;1.35;;;;;;;9.08;100.00;101236.69;5114610;28;20175;-38
2022/12/26 09:50:58;;;;;;;3.58;1.33;;;;;;;9.08;100.00;101246.63;5113918;28;20037;-38
2022/12/26 09:53:34;;;;;;;4.30;1.50;;;;;;;9.00;100.00;101235.03;5113736;28;20031;-38
2022/12/26 09:56:05;;;;;;;4.43;1.50;;;;;;;9.07;100.00;101242.28;5113987;28;20031;-38
2022/12/26 09:58:37;;;;;;;2.42;1.00;;;;;;;9.07;100.00;101244.97;5113762;28;20030;-38
2022/12/26 10:01:27;;;;;;;5.28;1.55;;;;;;;9.07;100.00;101245.81;5113652;28;20106;-38
2022/12/26 10:03:55;;;;;;;3.72;1.58;;;;;;;9.05;100.00;101242.50;5113829;28;20490;-38
2022/12/26 10:06:23;;;;;;;4.50;1.80;;;;;;;9.08;100.00;101254.72;5113738;28;20055;-38
2022/12/26 10:09:14;;;;;;;3.38;1.30;;;;;;;9.02;100.00;101243.75;5113769;28;20058;-38
2022/12/26 10:11:58;;;;;;;2.78;1.17;;;;;;;9.02;100.00;101251.84;5114260;28;20313;-38
2022/12/26 10:14:44;;;;;;;4.60;1.23;;;;;;;9.13;100.00;101260.34;5113693;28;20063;-38
2022/12/26 10:17:39;;;;;;;5.75;1.52;;;;;;;9.10;100.00;101261.59;5114012;28;20027;-37
2022/12/26 10:20:25;;;;;;;4.55;1.45;;;;;;;9.15;100.00;101272.56;5113700;28;20038;-38
2022/12/26 10:23:21;;;;;;;8.05;1.50;;;;;;;9.16;100.00;101273.41;5113462;28;20061;-38
2022/12/26 10:25:48;;;;;;;4.88;1.50;;;;;;;9.16;100.00;101284.19;5113567;28;20023;-40
2022/12/26 10:28:46;;;;;;;5.07;1.65;;;;;;;9.13;100.00;101338.59;5113474;28;20088;-38
2022/12/26 10:31:30;;;;;;;;;;;;;;;8.97;100.00;101340.66;5108477;28;20035;-38
2022/12/26 10:34:15;;;;;;;6.70;1.40;;;;;;;8.60;100.00;101338.59;5113960;28;20057;-37
2022/12/26 10:36:57;;;;;;;4.63;1.48;;;;;;;8.43;100.00;101343.53;5113048;28;20395;-37
2022/12/26 10:39:32;;;;;;;6.57;1.55;;;;;;;8.26;100.00;101337.66;5113441;28;20023;-37
2022/12/26 10:42:07;;;;;;;6.15;1.30;;;;;;;8.18;100.00;101333.28;5113822;28;20436;-37
2022/12/26 10:44:32;;;;;;;6.25;1.70;;;;;;;8.21;100.00;101346.34;5113636;28;20020;-37
2022/12/26 10:47:11;;;;;;;4.73;1.30;;;;;;;8.19;100.00;101343.03;5113392;28;20373;-37
2022/12/26 10:49:36;;;;;;;8.73;1.90;;;;;;;8.12;100.00;101335.97;5113584;28;20460;-45
2022/12/26 10:52:03;;;;;;;7.37;1.50;;;;;;;8.17;100.00;101346.97;5113763;28;20040;-38
2022/12/26 10:54:29;;;;;;;5.47;1.55;;;;;;;8.02;100.00;101336.34;5114066;28;20027;-37
2022/12/26 10:56:57;;;;;;;6.82;2.10;;;;;;;8.10;100.00;101364.94;5113092;28;20028;-37
2022/12/26 10:59:34;;;;;;;9.00;2.10;;;;;;;7.95;100.00;101357.03;5113485;28;20348;-37
2022/12/26 11:02:23;;;;;;;10.85;2.40;;;;;;;8.04;100.00;101377.38;5113569;28;20084;-37
2022/12/26 11:05:12;;;;;;;7.38;1.67;;;;;;;7.96;100.00;101369.50;5113353;28;20107;-37
2022/12/26 11:07:43;;;;;;;7.68;1.98;;;;;;;7.96;100.00;101386.47;5113865;28;20099;-37
2022/12/26 11:10:20;;;;;;;6.50;1.60;;;;;;;7.95;100.00;101382.13;5113028;28;20051;-39
2022/12/26 11:12:53;;;;;;;7.63;1.85;;;;;;;7.94;100.00;101396.59;5113106;28;20096;-37
2022/12/26 11:15:18;;;;;;;8.35;1.90;;;;;;;7.94;100.00;101399.28;5117655;28;20028;-37
2022/12/26 11:17:45;;;;;;;7.87;1.93;;;;;;;7.86;100.00;101391.41;5117157;28;20036;-37
2022/12/26 11:20:22;;;;;;;7.22;2.45;;;;;;;7.85;100.00;101405.03;5117144;28;20051;-37
2022/12/26 11:22:48;;;;;;;;;;;;;;;7.98;100.00;101416.72;5117534;28;20370;-37
2022/12/26 11:25:18;;;;;;;5.80;2.30;;;;;;;7.94;100.00;101414.63;5117463;28;19912;-37
2022/12/26 11:27:49;;;;;;;11.50;2.42;;;;;;;7.92;100.00;101420.22;5117122;28;20471;-37
2022/12/26 11:30:17;;;;;;;9.50;2.33;;;;;;;7.92;100.00;101416.69;5116669;28;20023;-38
2022/12/26 11:32:46;;;;;;;14.45;2.95;;;;;;;7.93;100.00;101408.41;5116683;27;20107;-37
2022/12/26 11:35:25;;;;;;;13.75;2.70;;;;;;;7.98;100.00;101421.28;5116646;27;20031;-37
2022/12/26 11:37:56;;;;;;;8.65;2.25;;;;;;;7.99;100.00;101431.00;5116945;28;20024;-37
2022/12/26 11:40:25;;;;;;;13.05;6.43;;;;;;;8.04;100.00;101423.16;5115962;28;20096;-37
2022/12/26 11:42:57;;;;;;;10.00;2.67;;;;;;;8.06;100.00;101412.22;5116747;27;20484;-37
2022/12/26 11:45:26;;;;;;;9.02;2.10;;;;;;;8.12;100.00;101427.56;5116460;28;20084;-38
2022/12/26 11:47:55;;;;;;;9.55;2.20;;;;;;;8.10;100.00;101440.38;5116642;28;20069;-38
2022/12/26 11:50:24;;;;;;;6.07;1.73;;;;;;;7.97;100.00;101439.28;5116382;28;20028;-38
2022/12/26 11:52:58;;;;;;;4.38;1.77;;;;;;;7.98;100.00;101448.22;5116539;28;20023;-38
2022/12/26 11:55:34;;;;;;;6.18;1.52;;;;;;;7.88;100.00;101453.94;5116521;28;20031;-38
2022/12/26 11:58:08;;;;;;;6.18;1.75;;;;;;;7.83;100.00;101461.78;5116466;28;20106;-38
2022/12/26 12:00:57;;;;;;;6.68;2.13;;;;;;;7.74;100.00;101450.34;5116262;28;20104;-38
2022/12/26 12:03:31;;;;;;;10.48;3.40;;;;;;;7.78;100.00;101456.16;5109136;28;20103;-38
2022/12/26 12:06:21;;;;;;;9.18;2.85;;;;;;;7.81;100.00;101471.94;5116106;28;20028;-38
2022/12/26 12:09:05;;;;;;;6.38;1.90;;;;;;;7.72;100.00;101454.28;5115972;28;20019;-37
2022/12/26 12:11:56;;;;;;;5.55;1.90;;;;;;;7.83;100.00;101471.72;5115670;28;20032;-38
2022/12/26 12:14:29;;;;;;;5.50;1.80;;;;;;;7.78;100.00;101479.56;5033494;28;20523;-37
2022/12/26 12:17:32;;;;;;;6.18;1.83;;;;;;;7.68;100.00;101469.16;5033132;28;20026;-37
2022/12/26 12:19:57;;;;;;;9.88;2.10;;;;;;;7.74;100.00;101481.81;5013098;28;20402;-37
2022/12/26 12:22:28;;;;;;;8.90;2.30;;;;;;;7.71;100.00;101469.59;5012979;28;20038;-38
2022/12/26 12:25:36;;;;;;;6.20;1.88;;;;;;;7.74;100.00;101473.75;5013467;28;20387;-37
2022/12/26 12:28:26;;;;;;;9.73;2.70;;;;;;;7.76;100.00;101466.31;5013634;28;20054;-38
2022/12/26 12:31:00;;;;;;;9.95;2.85;;;;;;;7.82;100.00;101472.78;5013423;28;20049;-38
2022/12/26 12:33:39;;;;;;;6.63;2.00;;;;;;;7.80;100.00;101477.50;5013171;28;20069;-38
2022/12/26 12:36:10;;;;;;;7.72;1.77;;;;;;;7.79;100.00;101483.94;5013052;28;20045;-38
2022/12/26 12:39:14;;;;;;;5.70;1.80;;;;;;;7.80;100.00;101490.97;5012605;28;20072;-38
2022/12/26 12:41:53;;;;;;;5.80;1.50;;;;;;;7.68;100.00;101483.44;5012920;28;20555;-38
2022/12/26 12:44:35;;;;;;;5.57;1.40;;;;;;;7.73;100.00;101499.00;5012589;28;20136;-38
2022/12/26 12:47:28;;;;;;;4.40;1.30;;;;;;;7.69;100.00;101493.19;5013009;28;20120;-38
2022/12/26 12:49:59;;;;;;;7.28;1.73;;;;;;;7.66;100.00;101496.28;5012520;28;20128;-38
2022/12/26 12:52:47;;;;;;;8.43;1.73;;;;;;;7.67;100.00;101499.81;5072088;28;20090;-37
2022/12/26 12:55:28;;;;;;;3.17;1.30;;;;;;;7.74;100.00;101506.88;5088066;28;20040;-38
2022/12/26 12:58:14;;;;;;;5.78;1.40;;;;;;;7.77;100.00;101513.75;5115266;28;20089;-38
2022/12/26 13:00:47;;;;;;;6.15;1.85;;;;;;;7.72;100.00;101516.19;5115185;28;20023;-38
2022/12/26 13:03:19;;;;;;;9.57;1.52;;;;;;;7.64;100.00;101516.31;5114951;28;20118;-38
2022/12/26 13:05:58;;;;;;;5.20;1.20;;;;;;;7.53;100.00;101509.63;5114825;28;20037;-37
2022/12/26 13:08:37;;;;;;;4.25;1.20;;;;;;;7.47;100.00;101507.72;5115037;28;20114;-37
2022/12/26 13:11:21;;;;;;;4.97;1.33;;;;;;;7.49;100.00;101517.25;5115259;28;20081;-38
2022/12/26 13:13:49;;;;;;;5.85;1.15;;;;;;;7.31;100.00;101521.41;5114714;27;20042;-37
2022/12/26 13:16:18;;;;;;;4.82;1.20;;;;;;;7.30;100.00;101531.34;5114586;28;20043;-38
2022/12/26 13:18:55;;;;;;;3.92;1.20;;;;;;;7.18;100.00;101520.28;5114838;28;20482;-38
2022/12/26 13:21:21;;;;;;;5.18;1.40;;;;;;;7.16;100.00;101519.63;5114579;28;20020;-38
2022/12/26 13:26:54;;;;;;;4.32;1.92;;;;;;;7.13;100.00;101524.59;5114763;28;20039;-38
2022/12/26 13:29:37;;;;;;;3.50;1.30;;;;;;;7.11;100.00;101522.06;5113341;28;20104;-37
2022/12/26 13:32:12;;;;;;;5.35;1.20;;;;;;;7.01;100.00;101515.34;5114343;28;20031;-37
2022/12/26 13:34:38;;;;;;;5.50;1.30;;;;;;;6.89;100.00;101507.78;5113336;28;20031;-37
2022/12/26 13:37:03;;;;;;;3.08;1.00;;;;;;;6.99;99.78;101534.38;5113603;28;20088;-37
2022/12/26 13:39:35;;;;;;;5.43;1.00;;;;;;;7.00;100.00;101546.78;5114511;28;20057;-37
2022/12/26 13:44:51;;;;;;;4.35;0.93;;;;;;;6.91;100.00;101538.00;5113796;28;20043;-37